Couch, Missouri
Current Conditions -  °F | °C
As of 1:53 PM on Monday 24 Nov 2014 (Local Time) from KUNO Reporting Station
Scattered Clouds Scattered Clouds  
Wind Chill: 51°   Ceiling: Unl
Heat Index: 51°   Visibility: 10mi
Dew Point: 27°   Wind: 14mph
Humidity: 39%   Direction: 260°W
Pressure: 29.8"   Gusts: 26mph
Location:  36.61°N, 91.38°W
Report Text: KUNO 241953Z AUTO 26012G23KT 10SM SCT055 11/M03 A2980 RMK AO2 PK WND 27028/1901 SLP091 T01061028
Loading
Personal Weather Stations






























Interactive Weather Map New forecast layout! Learn more

10-Day Weather Forecast

Advertisements
Track Severe Weather on mobile